sensor_id;sensor_type;location;lat;lon;timestamp;temperature;humidity
66831;DHT22;53739;44.224;22.528;2022-11-15T00:00:14;230.60;2252.80
66831;DHT22;53739;44.224;22.528;2022-11-15T00:02:43;230.60;2252.80
66831;DHT22;53739;44.224;22.528;2022-11-15T00:05:12;230.60;2252.80
66831;DHT22;53739;44.224;22.528;2022-11-15T00:07:57;230.60;2252.80
66831;DHT22;53739;44.224;22.528;2022-11-15T00:10:23;230.70;2252.80
66831;DHT22;53739;44.224;22.528;2022-11-15T00:12:49;230.70;2252.80
66831;DHT22;53739;44.224;22.528;2022-11-15T00:15:26;230.70;2252.80
66831;DHT22;53739;44.224;22.528;2022-11-15T00:17:54;230.60;2252.80
66831;DHT22;53739;44.224;22.528;2022-11-15T00:20:20;230.60;2252.80
66831;DHT22;53739;44.224;22.528;2022-11-15T00:26:15;230.80;2252.80
66831;DHT22;53739;44.224;22.528;2022-11-15T00:28:44;230.80;2252.80
66831;DHT22;53739;44.224;22.528;2022-11-15T00:31:14;230.80;2252.80
66831;DHT22;53739;44.224;22.528;2022-11-15T00:33:44;230.70;2252.80
66831;DHT22;53739;44.224;22.528;2022-11-15T00:36:10;230.80;2252.80
66831;DHT22;53739;44.224;22.528;2022-11-15T00:38:40;230.60;2252.80
66831;DHT22;53739;44.224;22.528;2022-11-15T00:41:11;230.70;2252.80
66831;DHT22;53739;44.224;22.528;2022-11-15T00:43:42;230.70;2252.80
66831;DHT22;53739;44.224;22.528;2022-11-15T00:46:11;230.70;2252.80
66831;DHT22;53739;44.224;22.528;2022-11-15T00:48:45;230.80;2252.80
66831;DHT22;53739;44.224;22.528;2022-11-15T00:51:13;230.80;2252.80
66831;DHT22;53739;44.224;22.528;2022-11-15T00:53:41;230.80;2252.80
66831;DHT22;53739;44.224;22.528;2022-11-15T00:56:07;230.70;2252.80
66831;DHT22;53739;44.224;22.528;2022-11-15T00:58:33;230.80;2252.80
66831;DHT22;53739;44.224;22.528;2022-11-15T01:01:10;230.70;2252.80
66831;DHT22;53739;44.224;22.528;2022-11-15T01:03:38;230.70;2252.80
66831;DHT22;53739;44.224;22.528;2022-11-15T01:06:08;230.70;2252.80
66831;DHT22;53739;44.224;22.528;2022-11-15T01:08:33;230.60;2252.80
66831;DHT22;53739;44.224;22.528;2022-11-15T01:11:08;230.70;2252.80
66831;DHT22;53739;44.224;22.528;2022-11-15T01:13:37;230.70;2252.80
66831;DHT22;53739;44.224;22.528;2022-11-15T01:16:15;230.70;2252.80
66831;DHT22;53739;44.224;22.528;2022-11-15T01:18:45;230.70;2252.80
66831;DHT22;53739;44.224;22.528;2022-11-15T01:21:14;230.80;2252.80
66831;DHT22;53739;44.224;22.528;2022-11-15T01:23:42;230.90;2252.80
66831;DHT22;53739;44.224;22.528;2022-11-15T01:26:14;230.80;2252.80
66831;DHT22;53739;44.224;22.528;2022-11-15T01:28:41;230.80;2252.80
66831;DHT22;53739;44.224;22.528;2022-11-15T01:31:12;230.80;2252.80
66831;DHT22;53739;44.224;22.528;2022-11-15T01:33:38;230.70;2252.80
66831;DHT22;53739;44.224;22.528;2022-11-15T01:36:06;230.80;2252.80
66831;DHT22;53739;44.224;22.528;2022-11-15T01:38:32;230.80;2252.80
66831;DHT22;53739;44.224;22.528;2022-11-15T01:41:05;230.80;2252.80
66831;DHT22;53739;44.224;22.528;2022-11-15T01:43:36;230.80;2252.80
66831;DHT22;53739;44.224;22.528;2022-11-15T01:46:30;230.80;2252.80
66831;DHT22;53739;44.224;22.528;2022-11-15T01:49:26;230.70;2252.80
66831;DHT22;53739;44.224;22.528;2022-11-15T01:55:58;230.60;2252.80
66831;DHT22;53739;44.224;22.528;2022-11-15T02:02:32;230.70;2252.80
66831;DHT22;53739;44.224;22.528;2022-11-15T02:08:57;230.60;2252.80
66831;DHT22;53739;44.224;22.528;2022-11-15T02:11:24;230.70;2252.80
66831;DHT22;53739;44.224;22.528;2022-11-15T02:13:54;230.70;2252.80
66831;DHT22;53739;44.224;22.528;2022-11-15T06:48:05;231.00;2252.80
66831;DHT22;53739;44.224;22.528;2022-11-15T06:54:26;231.10;2252.80
66831;DHT22;53739;44.224;22.528;2022-11-15T06:56:54;231.10;2252.80
66831;DHT22;53739;44.224;22.528;2022-11-15T06:59:23;231.10;2252.80
66831;DHT22;53739;44.224;22.528;2022-11-15T10:28:28;256.90;2252.80
66831;DHT22;53739;44.224;22.528;2022-11-15T12:19:09;256.70;2252.80
66831;DHT22;53739;44.224;22.528;2022-11-15T12:21:56;256.70;2252.80
66831;DHT22;53739;44.224;22.528;2022-11-15T12:50:54;256.50;2252.80
66831;DHT22;53739;44.224;22.528;2022-11-15T12:58:44;256.40;2252.80
66831;DHT22;53739;44.224;22.528;2022-11-15T13:06:57;256.30;2252.80
66831;DHT22;53739;44.224;22.528;2022-11-15T13:15:56;256.30;2252.80
66831;DHT22;53739;44.224;22.528;2022-11-15T13:18:43;256.40;2252.80
66831;DHT22;53739;44.224;22.528;2022-11-15T13:21:56;256.40;2252.80
66831;DHT22;53739;44.224;22.528;2022-11-15T13:24:53;256.50;2252.80
66831;DHT22;53739;44.224;22.528;2022-11-15T13:27:40;256.40;2252.80
66831;DHT22;53739;44.224;22.528;2022-11-15T13:47:13;256.30;2252.80
66831;DHT22;53739;44.224;22.528;2022-11-15T13:49:48;256.40;2252.80
66831;DHT22;53739;44.224;22.528;2022-11-15T13:52:49;256.40;2252.80
66831;DHT22;53739;44.224;22.528;2022-11-15T14:51:03;231.30;2252.80
66831;DHT22;53739;44.224;22.528;2022-11-15T14:53:47;256.00;2252.80
66831;DHT22;53739;44.224;22.528;2022-11-15T14:56:14;256.10;2252.80
66831;DHT22;53739;44.224;22.528;2022-11-15T14:58:40;256.10;2252.80
66831;DHT22;53739;44.224;22.528;2022-11-15T15:01:37;256.20;2252.80
66831;DHT22;53739;44.224;22.528;2022-11-15T15:11:50;256.10;2252.80
66831;DHT22;53739;44.224;22.528;2022-11-15T15:32:07;256.20;2252.80
66831;DHT22;53739;44.224;22.528;2022-11-15T15:34:37;256.20;2252.80
66831;DHT22;53739;44.224;22.528;2022-11-15T15:37:22;256.20;2252.80
66831;DHT22;53739;44.224;22.528;2022-11-15T15:43:07;256.10;2252.80
66831;DHT22;53739;44.224;22.528;2022-11-15T15:49:18;256.20;2252.80
66831;DHT22;53739;44.224;22.528;2022-11-15T16:17:45;256.20;2252.80
66831;DHT22;53739;44.224;22.528;2022-11-15T16:23:12;256.10;2252.80
66831;DHT22;53739;44.224;22.528;2022-11-15T16:43:05;256.00;2252.80
66831;DHT22;53739;44.224;22.528;2022-11-15T17:09:28;231.20;2252.80
66831;DHT22;53739;44.224;22.528;2022-11-15T17:35:27;231.10;2252.80
66831;DHT22;53739;44.224;22.528;2022-11-15T17:38:00;231.20;2252.80
66831;DHT22;53739;44.224;22.528;2022-11-15T17:43:56;231.20;2252.80
66831;DHT22;53739;44.224;22.528;2022-11-15T17:53:53;231.00;2252.80
66831;DHT22;53739;44.224;22.528;2022-11-15T18:03:20;231.00;2252.80
66831;DHT22;53739;44.224;22.528;2022-11-15T18:05:55;231.10;2252.80
66831;DHT22;53739;44.224;22.528;2022-11-15T18:08:26;231.00;2252.80
66831;DHT22;53739;44.224;22.528;2022-11-15T18:11:19;231.10;2252.80
66831;DHT22;53739;44.224;22.528;2022-11-15T18:20:58;231.20;2252.80
66831;DHT22;53739;44.224;22.528;2022-11-15T18:23:24;231.20;2252.80
66831;DHT22;53739;44.224;22.528;2022-11-15T18:45:00;231.20;2252.80
66831;DHT22;53739;44.224;22.528;2022-11-15T20:15:02;231.30;2252.80
66831;DHT22;53739;44.224;22.528;2022-11-15T20:31:31;231.10;2252.80
66831;DHT22;53739;44.224;22.528;2022-11-15T20:33:59;231.10;2252.80
66831;DHT22;53739;44.224;22.528;2022-11-15T22:01:09;231.10;2252.80
66831;DHT22;53739;44.224;22.528;2022-11-15T22:03:54;231.10;2252.80
66831;DHT22;53739;44.224;22.528;2022-11-15T22:06:29;231.00;2252.80
66831;DHT22;53739;44.224;22.528;2022-11-15T22:08:54;231.00;2252.80
66831;DHT22;53739;44.224;22.528;2022-11-15T22:11:20;231.00;2252.80
66831;DHT22;53739;44.224;22.528;2022-11-15T22:14:06;231.00;2252.80
66831;DHT22;53739;44.224;22.528;2022-11-15T22:16:37;231.10;2252.80
66831;DHT22;53739;44.224;22.528;2022-11-15T22:19:21;231.00;2252.80
66831;DHT22;53739;44.224;22.528;2022-11-15T22:21:47;231.10;2252.80
66831;DHT22;53739;44.224;22.528;2022-11-15T22:24:13;231.00;2252.80
66831;DHT22;53739;44.224;22.528;2022-11-15T22:26:38;231.00;2252.80
66831;DHT22;53739;44.224;22.528;2022-11-15T22:29:04;231.00;2252.80
66831;DHT22;53739;44.224;22.528;2022-11-15T22:31:33;231.10;2252.80
66831;DHT22;53739;44.224;22.528;2022-11-15T22:34:09;231.10;2252.80
66831;DHT22;53739;44.224;22.528;2022-11-15T22:36:40;231.00;2252.80
66831;DHT22;53739;44.224;22.528;2022-11-15T22:39:15;231.00;2252.80
66831;DHT22;53739;44.224;22.528;2022-11-15T22:41:52;231.10;2252.80
66831;DHT22;53739;44.224;22.528;2022-11-15T22:51:03;231.10;2252.80
66831;DHT22;53739;44.224;22.528;2022-11-15T22:57:23;231.10;2252.80
66831;DHT22;53739;44.224;22.528;2022-11-15T22:59:53;231.10;2252.80
66831;DHT22;53739;44.224;22.528;2022-11-15T23:02:38;231.00;2252.80
66831;DHT22;53739;44.224;22.528;2022-11-15T23:05:17;231.00;2252.80
66831;DHT22;53739;44.224;22.528;2022-11-15T23:07:54;231.00;2252.80
66831;DHT22;53739;44.224;22.528;2022-11-15T23:10:22;231.00;2252.80
66831;DHT22;53739;44.224;22.528;2022-11-15T23:13:11;231.00;2252.80
66831;DHT22;53739;44.224;22.528;2022-11-15T23:15:50;230.90;2252.80
66831;DHT22;53739;44.224;22.528;2022-11-15T23:18:36;231.00;2252.80
66831;DHT22;53739;44.224;22.528;2022-11-15T23:21:27;230.90;2252.80
66831;DHT22;53739;44.224;22.528;2022-11-15T23:24:12;230.90;2252.80
66831;DHT22;53739;44.224;22.528;2022-11-15T23:26:39;230.80;2252.80
66831;DHT22;53739;44.224;22.528;2022-11-15T23:29:07;230.80;2252.80
66831;DHT22;53739;44.224;22.528;2022-11-15T23:31:33;230.80;2252.80
66831;DHT22;53739;44.224;22.528;2022-11-15T23:34:17;230.90;2252.80
66831;DHT22;53739;44.224;22.528;2022-11-15T23:36:43;230.90;2252.80
66831;DHT22;53739;44.224;22.528;2022-11-15T23:39:09;230.80;2252.80
66831;DHT22;53739;44.224;22.528;2022-11-15T23:41:35;230.90;2252.80
66831;DHT22;53739;44.224;22.528;2022-11-15T23:44:02;230.90;2252.80
66831;DHT22;53739;44.224;22.528;2022-11-15T23:46:28;230.90;2252.80
66831;DHT22;53739;44.224;22.528;2022-11-15T23:48:53;230.90;2252.80
66831;DHT22;53739;44.224;22.528;2022-11-15T23:51:19;230.90;2252.80
66831;DHT22;53739;44.224;22.528;2022-11-15T23:53:45;231.00;2252.80
66831;DHT22;53739;44.224;22.528;2022-11-15T23:56:13;230.90;2252.80
66831;DHT22;53739;44.224;22.528;2022-11-15T23:58:42;230.80;2252.80
